sensor_id;sensor_type;location;lat;lon;timestamp;pressure;altitude;pressure_sealevel;temperature;humidity
66398;BME280;54877;51.504;3.894;2023-03-14T00:00:48;98970.94;;;13.08;61.12
66398;BME280;54877;51.504;3.894;2023-03-14T00:03:13;98967.94;;;13.02;61.26
66398;BME280;54877;51.504;3.894;2023-03-14T00:05:39;98968.31;;;12.87;61.55
66398;BME280;54877;51.504;3.894;2023-03-14T00:08:04;98972.78;;;12.77;61.77
66398;BME280;54877;51.504;3.894;2023-03-14T00:10:30;98979.47;;;12.81;61.97
66398;BME280;54877;51.504;3.894;2023-03-14T00:12:55;98972.78;;;12.77;61.87
66398;BME280;54877;51.504;3.894;2023-03-14T00:15:20;98980.44;;;12.71;62.25
66398;BME280;54877;51.504;3.894;2023-03-14T00:17:46;98975.00;;;12.72;62.79
66398;BME280;54877;51.504;3.894;2023-03-14T00:20:11;98967.00;;;12.63;63.36
66398;BME280;54877;51.504;3.894;2023-03-14T00:22:37;98965.00;;;12.55;64.28
66398;BME280;54877;51.504;3.894;2023-03-14T00:25:04;98967.50;;;12.57;64.69
66398;BME280;54877;51.504;3.894;2023-03-14T00:27:31;98969.25;;;12.67;64.75
66398;BME280;54877;51.504;3.894;2023-03-14T00:29:57;98962.56;;;12.73;64.53
66398;BME280;54877;51.504;3.894;2023-03-14T00:32:22;98965.66;;;12.78;64.34
66398;BME280;54877;51.504;3.894;2023-03-14T00:34:48;98967.47;;;12.77;64.26
66398;BME280;54877;51.504;3.894;2023-03-14T00:37:13;98966.50;;;12.78;64.29
66398;BME280;54877;51.504;3.894;2023-03-14T00:39:39;98979.94;;;12.86;64.00
66398;BME280;54877;51.504;3.894;2023-03-14T00:42:04;98978.66;;;12.81;64.28
66398;BME280;54877;51.504;3.894;2023-03-14T00:44:30;98982.44;;;12.88;63.94
66398;BME280;54877;51.504;3.894;2023-03-14T00:46:56;98992.06;;;12.79;64.12
66398;BME280;54877;51.504;3.894;2023-03-14T00:49:22;98998.66;;;12.85;63.52
66398;BME280;54877;51.504;3.894;2023-03-14T00:51:47;98985.25;;;12.86;63.45
66398;BME280;54877;51.504;3.894;2023-03-14T00:54:12;98974.25;;;13.01;62.68
66398;BME280;54877;51.504;3.894;2023-03-14T00:56:38;98971.28;;;13.04;62.53
66398;BME280;54877;51.504;3.894;2023-03-14T00:59:03;98969.03;;;12.99;62.26
66398;BME280;54877;51.504;3.894;2023-03-14T01:01:29;98964.59;;;13.00;62.17
66398;BME280;54877;51.504;3.894;2023-03-14T01:03:54;98962.09;;;13.08;61.87
66398;BME280;54877;51.504;3.894;2023-03-14T01:06:25;98962.09;;;13.08;61.86
66398;BME280;54877;51.504;3.894;2023-03-14T01:08:52;98958.16;;;13.02;61.97
66398;BME280;54877;51.504;3.894;2023-03-14T01:11:19;98962.94;;;13.08;61.89
66398;BME280;54877;51.504;3.894;2023-03-14T01:13:47;98961.22;;;12.98;62.13
66398;BME280;54877;51.504;3.894;2023-03-14T01:16:12;98958.28;;;12.91;62.18
66398;BME280;54877;51.504;3.894;2023-03-14T01:18:39;98964.59;;;13.00;62.36
66398;BME280;54877;51.504;3.894;2023-03-14T01:21:19;98950.16;;;12.92;62.44
66398;BME280;54877;51.504;3.894;2023-03-14T01:23:50;98959.81;;;12.84;62.45
66398;BME280;54877;51.504;3.894;2023-03-14T01:26:19;98960.78;;;12.92;62.74
66398;BME280;54877;51.504;3.894;2023-03-14T01:28:48;98946.38;;;12.85;62.87
66398;BME280;54877;51.504;3.894;2023-03-14T01:31:14;98947.22;;;12.95;62.61
66398;BME280;54877;51.504;3.894;2023-03-14T01:33:41;98950.00;;;12.84;63.28
66398;BME280;54877;51.504;3.894;2023-03-14T01:36:07;98958.41;;;12.89;63.23
66398;BME280;54877;51.504;3.894;2023-03-14T01:38:34;98947.06;;;12.87;63.04
66398;BME280;54877;51.504;3.894;2023-03-14T01:41:00;98951.41;;;12.98;63.03
66398;BME280;54877;51.504;3.894;2023-03-14T01:43:27;98953.66;;;12.93;63.04
66398;BME280;54877;51.504;3.894;2023-03-14T01:51:08;98939.81;;;12.99;62.71
66398;BME280;54877;51.504;3.894;2023-03-14T01:53:37;98943.31;;;13.00;62.70
66398;BME280;54877;51.504;3.894;2023-03-14T01:56:04;98934.06;;;12.84;63.32
66398;BME280;54877;51.504;3.894;2023-03-14T01:58:31;98932.94;;;12.87;63.29
66398;BME280;54877;51.504;3.894;2023-03-14T02:00:59;98933.78;;;12.87;63.18
66398;BME280;54877;51.504;3.894;2023-03-14T02:03:27;98925.84;;;12.97;62.98
66398;BME280;54877;51.504;3.894;2023-03-14T02:05:56;98926.53;;;12.99;63.08
66398;BME280;54877;51.504;3.894;2023-03-14T02:08:27;98918.72;;;12.98;63.03
66398;BME280;54877;51.504;3.894;2023-03-14T02:10:52;98919.97;;;12.93;63.20
66398;BME280;54877;51.504;3.894;2023-03-14T02:13:18;98912.97;;;12.92;63.19
66398;BME280;54877;51.504;3.894;2023-03-14T02:15:46;98919.00;;;12.94;63.14
66398;BME280;54877;51.504;3.894;2023-03-14T02:18:12;98919.78;;;12.76;64.04
66398;BME280;54877;51.504;3.894;2023-03-14T02:20:45;98913.97;;;12.91;63.67
66398;BME280;54877;51.504;3.894;2023-03-14T02:23:19;98925.44;;;13.02;63.16
66398;BME280;54877;51.504;3.894;2023-03-14T02:25:58;98913.16;;;13.01;63.29
66398;BME280;54877;51.504;3.894;2023-03-14T02:28:30;98930.06;;;13.00;63.20
66398;BME280;54877;51.504;3.894;2023-03-14T02:30:55;98914.94;;;13.00;63.33
66398;BME280;54877;51.504;3.894;2023-03-14T02:33:21;98918.72;;;12.98;63.31
66398;BME280;54877;51.504;3.894;2023-03-14T02:36:01;98925.00;;;12.96;63.41
66398;BME280;54877;51.504;3.894;2023-03-14T02:38:37;98913.41;;;12.98;63.42
66398;BME280;54877;51.504;3.894;2023-03-14T02:41:10;98908.78;;;13.00;63.20
66398;BME280;54877;51.504;3.894;2023-03-14T02:43:36;98905.88;;;13.03;63.36
66398;BME280;54877;51.504;3.894;2023-03-14T02:46:01;98906.41;;;12.96;63.66
66398;BME280;54877;51.504;3.894;2023-03-14T02:48:31;98891.31;;;13.07;63.25
66398;BME280;54877;51.504;3.894;2023-03-14T02:51:00;98894.38;;;12.92;63.63
66398;BME280;54877;51.504;3.894;2023-03-14T02:53:28;98890.06;;;12.91;63.76
66398;BME280;54877;51.504;3.894;2023-03-14T02:55:56;98881.81;;;12.94;63.55
66398;BME280;54877;51.504;3.894;2023-03-14T02:58:21;98894.41;;;13.02;63.55
66398;BME280;54877;51.504;3.894;2023-03-14T03:00:47;98892.16;;;12.98;63.61
66398;BME280;54877;51.504;3.894;2023-03-14T03:03:12;98887.66;;;12.98;63.72
66398;BME280;54877;51.504;3.894;2023-03-14T03:05:38;98893.56;;;13.02;63.69
66398;BME280;54877;51.504;3.894;2023-03-14T03:08:04;98891.44;;;12.95;63.81
66398;BME280;54877;51.504;3.894;2023-03-14T03:10:30;98884.59;;;12.83;64.19
66398;BME280;54877;51.504;3.894;2023-03-14T03:12:56;98880.41;;;12.90;63.84
66398;BME280;54877;51.504;3.894;2023-03-14T03:15:21;98884.28;;;12.77;64.56
66398;BME280;54877;51.504;3.894;2023-03-14T03:17:47;98890.44;;;12.77;64.51
66398;BME280;54877;51.504;3.894;2023-03-14T03:20:13;98893.81;;;12.79;64.51
66398;BME280;54877;51.504;3.894;2023-03-14T03:22:38;98880.25;;;12.73;64.95
66398;BME280;54877;51.504;3.894;2023-03-14T03:25:04;98883.44;;;12.76;64.93
66398;BME280;54877;51.504;3.894;2023-03-14T03:27:32;98894.22;;;12.75;65.10
66398;BME280;54877;51.504;3.894;2023-03-14T03:29:58;98898.00;;;12.82;64.89
66398;BME280;54877;51.504;3.894;2023-03-14T03:32:24;98886.25;;;12.84;64.73
66398;BME280;54877;51.504;3.894;2023-03-14T03:34:49;98886.56;;;12.91;64.63
66398;BME280;54877;51.504;3.894;2023-03-14T03:37:15;98898.00;;;12.82;64.89
66398;BME280;54877;51.504;3.894;2023-03-14T03:39:40;98889.63;;;12.86;65.00
66398;BME280;54877;51.504;3.894;2023-03-14T03:42:05;98890.34;;;12.88;64.87
66398;BME280;54877;51.504;3.894;2023-03-14T03:44:31;98891.03;;;12.90;64.96
66398;BME280;54877;51.504;3.894;2023-03-14T03:46:56;98897.88;;;12.93;64.71
66398;BME280;54877;51.504;3.894;2023-03-14T03:49:21;98900.53;;;12.83;65.13
66398;BME280;54877;51.504;3.894;2023-03-14T03:51:47;98891.28;;;12.87;65.09
66398;BME280;54877;51.504;3.894;2023-03-14T03:54:12;98874.81;;;12.84;65.02
66398;BME280;54877;51.504;3.894;2023-03-14T03:56:38;98867.41;;;12.87;65.38
66398;BME280;54877;51.504;3.894;2023-03-14T03:59:03;98870.59;;;12.81;65.43
66398;BME280;54877;51.504;3.894;2023-03-14T04:01:28;98867.53;;;12.76;65.63
66398;BME280;54877;51.504;3.894;2023-03-14T04:03:54;98869.06;;;12.79;65.63
66398;BME280;54877;51.504;3.894;2023-03-14T04:06:19;98879.00;;;12.77;66.05
66398;BME280;54877;51.504;3.894;2023-03-14T04:08:44;98872.56;;;12.70;66.22
66398;BME280;54877;51.504;3.894;2023-03-14T04:11:10;98875.63;;;12.84;65.64
66398;BME280;54877;51.504;3.894;2023-03-14T04:13:35;98862.50;;;12.92;65.42
66398;BME280;54877;51.504;3.894;2023-03-14T04:16:01;98867.41;;;12.97;65.50
66398;BME280;54877;51.504;3.894;2023-03-14T04:18:26;98866.56;;;12.96;65.34
66398;BME280;54877;51.504;3.894;2023-03-14T04:20:52;98858.59;;;12.87;65.48
66398;BME280;54877;51.504;3.894;2023-03-14T04:23:19;98861.38;;;12.85;65.72
66398;BME280;54877;51.504;3.894;2023-03-14T04:25:45;98873.81;;;12.75;66.07
66398;BME280;54877;51.504;3.894;2023-03-14T04:28:10;98870.06;;;12.78;66.04
66398;BME280;54877;51.504;3.894;2023-03-14T04:30:36;98864.59;;;12.79;65.94
66398;BME280;54877;51.504;3.894;2023-03-14T04:33:01;98871.19;;;12.75;66.41
66398;BME280;54877;51.504;3.894;2023-03-14T04:35:27;98871.72;;;12.69;66.43
66398;BME280;54877;51.504;3.894;2023-03-14T04:37:52;98871.44;;;12.72;66.39
66398;BME280;54877;51.504;3.894;2023-03-14T04:40:18;98872.28;;;12.73;66.57
66398;BME280;54877;51.504;3.894;2023-03-14T04:42:43;98882.06;;;12.72;67.00
66398;BME280;54877;51.504;3.894;2023-03-14T04:45:08;98891.84;;;12.72;66.97
66398;BME280;54877;51.504;3.894;2023-03-14T04:47:34;98886.25;;;12.75;67.18
66398;BME280;54877;51.504;3.894;2023-03-14T04:50:00;98898.66;;;12.55;67.86
66398;BME280;54877;51.504;3.894;2023-03-14T04:52:26;98896.56;;;12.68;67.81
66398;BME280;54877;51.504;3.894;2023-03-14T04:54:52;98890.56;;;12.66;68.35
66398;BME280;54877;51.504;3.894;2023-03-14T04:57:17;98886.94;;;12.67;68.58
66398;BME280;54877;51.504;3.894;2023-03-14T04:59:43;98881.63;;;12.67;68.59
66398;BME280;54877;51.504;3.894;2023-03-14T05:02:08;98882.06;;;12.72;68.73
66398;BME280;54877;51.504;3.894;2023-03-14T05:04:33;98883.72;;;12.64;68.88
66398;BME280;54877;51.504;3.894;2023-03-14T05:06:59;98877.56;;;12.63;68.91
66398;BME280;54877;51.504;3.894;2023-03-14T05:09:25;98869.19;;;12.58;69.07
66398;BME280;54877;51.504;3.894;2023-03-14T05:11:51;98877.31;;;12.66;69.16
66398;BME280;54877;51.504;3.894;2023-03-14T05:14:17;98877.84;;;12.60;69.66
66398;BME280;54877;51.504;3.894;2023-03-14T05:16:43;98875.59;;;12.65;69.51
66398;BME280;54877;51.504;3.894;2023-03-14T05:19:08;98870.53;;;12.43;70.46
66398;BME280;54877;51.504;3.894;2023-03-14T05:21:35;98871.53;;;12.42;70.80
66398;BME280;54877;51.504;3.894;2023-03-14T05:24:01;98893.56;;;12.33;71.37
66398;BME280;54877;51.504;3.894;2023-03-14T05:26:26;98929.34;;;12.18;71.45
66398;BME280;54877;51.504;3.894;2023-03-14T05:28:51;98961.38;;;11.96;69.29
66398;BME280;54877;51.504;3.894;2023-03-14T05:31:16;98970.69;;;11.69;69.04
66398;BME280;54877;51.504;3.894;2023-03-14T05:33:42;98974.16;;;11.38;69.03
66398;BME280;54877;51.504;3.894;2023-03-14T05:36:07;98970.75;;;11.15;69.15
66398;BME280;54877;51.504;3.894;2023-03-14T05:38:33;98983.44;;;11.01;69.38
66398;BME280;54877;51.504;3.894;2023-03-14T05:40:58;98984.75;;;11.06;69.77
66398;BME280;54877;51.504;3.894;2023-03-14T05:43:24;98998.22;;;11.03;69.21
66398;BME280;54877;51.504;3.894;2023-03-14T05:45:49;99002.97;;;10.78;69.65
66398;BME280;54877;51.504;3.894;2023-03-14T05:48:14;99015.00;;;10.82;69.84
66398;BME280;54877;51.504;3.894;2023-03-14T05:50:40;99023.19;;;10.68;70.13
66398;BME280;54877;51.504;3.894;2023-03-14T05:53:05;99039.44;;;10.52;70.42
66398;BME280;54877;51.504;3.894;2023-03-14T05:55:30;99039.66;;;10.49;70.91
66398;BME280;54877;51.504;3.894;2023-03-14T05:57:56;99049.50;;;10.47;70.73
66398;BME280;54877;51.504;3.894;2023-03-14T06:00:21;99057.13;;;10.63;70.50
66398;BME280;54877;51.504;3.894;2023-03-14T06:02:47;99069.69;;;10.26;71.71
66398;BME280;54877;51.504;3.894;2023-03-14T06:05:12;99072.22;;;10.49;71.24
66398;BME280;54877;51.504;3.894;2023-03-14T06:07:37;99064.63;;;10.23;71.21
66398;BME280;54877;51.504;3.894;2023-03-14T06:10:03;99082.09;;;10.36;71.27
66398;BME280;54877;51.504;3.894;2023-03-14T06:12:32;99071.41;;;10.49;70.52
66398;BME280;54877;51.504;3.894;2023-03-14T06:14:57;99084.03;;;10.56;70.37
66398;BME280;54877;51.504;3.894;2023-03-14T06:17:22;99087.66;;;10.55;70.08
66398;BME280;54877;51.504;3.894;2023-03-14T06:19:48;99104.84;;;10.61;69.87
66398;BME280;54877;51.504;3.894;2023-03-14T06:22:13;99120.25;;;10.56;69.96
66398;BME280;54877;51.504;3.894;2023-03-14T06:24:39;99133.38;;;10.57;70.04
66398;BME280;54877;51.504;3.894;2023-03-14T06:27:04;99137.59;;;10.60;69.93
66398;BME280;54877;51.504;3.894;2023-03-14T06:29:29;99152.38;;;10.63;69.95
66398;BME280;54877;51.504;3.894;2023-03-14T06:31:55;99173.25;;;10.43;69.73
66398;BME280;54877;51.504;3.894;2023-03-14T06:34:20;99176.06;;;10.18;69.70
66398;BME280;54877;51.504;3.894;2023-03-14T06:36:46;99181.03;;;10.10;69.92
66398;BME280;54877;51.504;3.894;2023-03-14T06:39:11;99190.75;;;10.10;70.34
66398;BME280;54877;51.504;3.894;2023-03-14T06:41:37;99204.84;;;10.10;69.71
66398;BME280;54877;51.504;3.894;2023-03-14T06:44:02;99197.84;;;10.22;69.33
66398;BME280;54877;51.504;3.894;2023-03-14T06:46:27;99212.34;;;10.16;68.97
66398;BME280;54877;51.504;3.894;2023-03-14T06:48:53;99227.47;;;10.14;68.49
66398;BME280;54877;51.504;3.894;2023-03-14T06:51:18;99237.09;;;10.15;68.64
66398;BME280;54877;51.504;3.894;2023-03-14T06:53:43;99243.16;;;10.04;68.76
66398;BME280;54877;51.504;3.894;2023-03-14T06:56:09;99252.16;;;10.02;69.42
66398;BME280;54877;51.504;3.894;2023-03-14T06:58:34;99260.38;;;10.10;69.33
66398;BME280;54877;51.504;3.894;2023-03-14T07:01:00;99261.16;;;9.99;69.78
66398;BME280;54877;51.504;3.894;2023-03-14T07:03:25;99269.91;;;10.00;69.37
66398;BME280;54877;51.504;3.894;2023-03-14T07:05:51;99287.19;;;9.93;70.14
66398;BME280;54877;51.504;3.894;2023-03-14T07:08:16;99292.75;;;10.01;69.70
66398;BME280;54877;51.504;3.894;2023-03-14T07:10:41;99303.31;;;10.01;69.88
66398;BME280;54877;51.504;3.894;2023-03-14T07:13:07;99305.03;;;9.89;69.63
66398;BME280;54877;51.504;3.894;2023-03-14T07:15:32;99323.06;;;10.08;69.44
66398;BME280;54877;51.504;3.894;2023-03-14T07:17:58;99322.56;;;10.03;69.21
66398;BME280;54877;51.504;3.894;2023-03-14T07:20:23;99326.19;;;10.02;69.41
66398;BME280;54877;51.504;3.894;2023-03-14T07:22:49;99325.13;;;9.92;69.72
66398;BME280;54877;51.504;3.894;2023-03-14T07:25:15;99343.63;;;9.92;69.39
66398;BME280;54877;51.504;3.894;2023-03-14T07:27:45;99354.19;;;9.92;69.08
66398;BME280;54877;51.504;3.894;2023-03-14T07:30:11;99364.06;;;9.77;69.58
66398;BME280;54877;51.504;3.894;2023-03-14T07:32:37;99373.69;;;9.91;69.70
66398;BME280;54877;51.504;3.894;2023-03-14T07:35:03;99380.22;;;9.98;69.31
66398;BME280;54877;51.504;3.894;2023-03-14T07:37:29;99399.53;;;10.11;69.56
66398;BME280;54877;51.504;3.894;2023-03-14T07:39:54;99393.00;;;10.04;69.36
66398;BME280;54877;51.504;3.894;2023-03-14T07:42:20;99408.66;;;10.07;69.20
66398;BME280;54877;51.504;3.894;2023-03-14T07:44:45;99411.28;;;9.94;70.09
66398;BME280;54877;51.504;3.894;2023-03-14T07:47:11;99429.19;;;9.91;70.19
66398;BME280;54877;51.504;3.894;2023-03-14T07:49:36;99431.63;;;9.94;70.12
66398;BME280;54877;51.504;3.894;2023-03-14T07:52:01;99445.56;;;9.96;70.27
66398;BME280;54877;51.504;3.894;2023-03-14T07:54:27;99458.38;;;10.02;69.74
66398;BME280;54877;51.504;3.894;2023-03-14T07:56:52;99468.28;;;10.11;69.51
66398;BME280;54877;51.504;3.894;2023-03-14T07:59:18;99469.47;;;10.07;70.12
66398;BME280;54877;51.504;3.894;2023-03-14T08:01:43;99467.91;;;10.04;70.33
66398;BME280;54877;51.504;3.894;2023-03-14T08:04:09;99491.16;;;10.12;70.32
66398;BME280;54877;51.504;3.894;2023-03-14T08:06:35;99494.16;;;10.20;70.05
66398;BME280;54877;51.504;3.894;2023-03-14T08:09:01;99500.63;;;10.16;69.65
66398;BME280;54877;51.504;3.894;2023-03-14T08:11:27;99505.53;;;10.08;69.93
66398;BME280;54877;51.504;3.894;2023-03-14T08:13:52;99516.25;;;10.19;69.46
66398;BME280;54877;51.504;3.894;2023-03-14T08:16:19;99518.25;;;10.28;69.37
66398;BME280;54877;51.504;3.894;2023-03-14T08:18:45;99527.28;;;10.13;69.34
66398;BME280;54877;51.504;3.894;2023-03-14T08:21:11;99534.53;;;10.10;69.11
66398;BME280;54877;51.504;3.894;2023-03-14T08:23:36;99539.44;;;10.28;68.79
66398;BME280;54877;51.504;3.894;2023-03-14T08:26:02;99554.63;;;10.12;68.94
66398;BME280;54877;51.504;3.894;2023-03-14T08:28:27;99574.94;;;10.12;68.04
66398;BME280;54877;51.504;3.894;2023-03-14T08:30:57;99581.94;;;10.13;67.95
66398;BME280;54877;51.504;3.894;2023-03-14T08:33:23;99586.09;;;9.90;68.08
66398;BME280;54877;51.504;3.894;2023-03-14T08:35:55;99597.69;;;10.14;68.02
66398;BME280;54877;51.504;3.894;2023-03-14T08:38:22;99616.88;;;10.18;68.42
66398;BME280;54877;51.504;3.894;2023-03-14T08:40:48;99608.13;;;10.03;67.77
66398;BME280;54877;51.504;3.894;2023-03-14T08:43:15;99624.84;;;10.03;68.78
66398;BME280;54877;51.504;3.894;2023-03-14T08:45:40;99628.84;;;9.96;67.47
66398;BME280;54877;51.504;3.894;2023-03-14T08:48:05;99640.25;;;9.97;68.17
66398;BME280;54877;51.504;3.894;2023-03-14T08:50:31;99663.72;;;9.89;69.19
66398;BME280;54877;51.504;3.894;2023-03-14T08:52:56;99682.31;;;9.87;69.40
66398;BME280;54877;51.504;3.894;2023-03-14T08:55:24;99688.66;;;9.85;68.99
66398;BME280;54877;51.504;3.894;2023-03-14T08:57:52;99690.25;;;9.87;69.02
66398;BME280;54877;51.504;3.894;2023-03-14T09:00:17;99694.53;;;9.76;68.79
66398;BME280;54877;51.504;3.894;2023-03-14T09:02:43;99707.34;;;9.82;68.51
66398;BME280;54877;51.504;3.894;2023-03-14T09:05:08;99713.19;;;9.87;67.19
66398;BME280;54877;51.504;3.894;2023-03-14T09:07:35;99729.44;;;9.81;67.13
66398;BME280;54877;51.504;3.894;2023-03-14T09:10:01;99738.88;;;9.85;66.47
66398;BME280;54877;51.504;3.894;2023-03-14T09:12:26;99736.78;;;9.90;67.18
66398;BME280;54877;51.504;3.894;2023-03-14T09:14:51;99759.84;;;9.88;66.98
66398;BME280;54877;51.504;3.894;2023-03-14T09:17:17;99762.41;;;9.75;64.75
66398;BME280;54877;51.504;3.894;2023-03-14T09:19:42;99775.34;;;9.80;63.74
66398;BME280;54877;51.504;3.894;2023-03-14T09:22:07;99774.38;;;9.81;63.57
66398;BME280;54877;51.504;3.894;2023-03-14T09:24:33;99783.03;;;9.97;63.21
66398;BME280;54877;51.504;3.894;2023-03-14T09:26:58;99785.94;;;10.07;62.65
66398;BME280;54877;51.504;3.894;2023-03-14T09:29:24;99797.94;;;10.12;61.58
66398;BME280;54877;51.504;3.894;2023-03-14T09:31:49;99796.06;;;10.14;61.42
66398;BME280;54877;51.504;3.894;2023-03-14T09:34:15;99816.19;;;10.43;59.98
66398;BME280;54877;51.504;3.894;2023-03-14T09:36:40;99816.75;;;10.48;59.63
66398;BME280;54877;51.504;3.894;2023-03-14T09:39:06;99827.66;;;10.56;59.41
66398;BME280;54877;51.504;3.894;2023-03-14T09:41:36;99831.06;;;10.58;59.61
66398;BME280;54877;51.504;3.894;2023-03-14T09:46:57;99841.38;;;10.76;58.63
66398;BME280;54877;51.504;3.894;2023-03-14T09:49:28;99855.16;;;10.81;58.03
66398;BME280;54877;51.504;3.894;2023-03-14T09:51:58;99868.72;;;10.76;57.67
66398;BME280;54877;51.504;3.894;2023-03-14T09:54:36;99881.63;;;10.81;57.80
66398;BME280;54877;51.504;3.894;2023-03-14T09:57:05;99891.44;;;10.93;57.79
66398;BME280;54877;51.504;3.894;2023-03-14T09:59:35;99893.38;;;11.03;57.61
66398;BME280;54877;51.504;3.894;2023-03-14T10:02:11;99901.84;;;10.96;56.97
66398;BME280;54877;51.504;3.894;2023-03-14T10:04:41;99917.22;;;10.77;56.55
66398;BME280;54877;51.504;3.894;2023-03-14T10:07:16;99926.00;;;10.77;56.79
66398;BME280;54877;51.504;3.894;2023-03-14T10:09:53;99935.59;;;10.66;57.39
66398;BME280;54877;51.504;3.894;2023-03-14T10:12:19;99942.53;;;10.81;57.37
66398;BME280;54877;51.504;3.894;2023-03-14T10:14:49;99950.50;;;10.67;57.42
66398;BME280;54877;51.504;3.894;2023-03-14T10:17:17;99951.53;;;10.78;57.71
66398;BME280;54877;51.504;3.894;2023-03-14T10:19:57;99974.03;;;10.85;57.38
66398;BME280;54877;51.504;3.894;2023-03-14T10:22:24;99986.88;;;10.77;57.29
66398;BME280;54877;51.504;3.894;2023-03-14T10:24:59;99998.94;;;10.69;58.35
66398;BME280;54877;51.504;3.894;2023-03-14T10:27:30;100018.22;;;10.56;61.39
66398;BME280;54877;51.504;3.894;2023-03-14T10:30:04;100026.09;;;10.30;62.74
66398;BME280;54877;51.504;3.894;2023-03-14T10:32:36;100036.28;;;10.22;63.13
66398;BME280;54877;51.504;3.894;2023-03-14T10:35:04;100043.63;;;10.17;63.10
66398;BME280;54877;51.504;3.894;2023-03-14T10:37:47;100045.66;;;10.27;61.17
66398;BME280;54877;51.504;3.894;2023-03-14T10:40:19;100047.16;;;10.45;60.51
66398;BME280;54877;51.504;3.894;2023-03-14T10:42:48;100051.91;;;10.54;59.29
66398;BME280;54877;51.504;3.894;2023-03-14T10:45:37;100062.75;;;10.64;58.70
66398;BME280;54877;51.504;3.894;2023-03-14T10:48:15;100070.56;;;10.94;59.08
66398;BME280;54877;51.504;3.894;2023-03-14T10:51:28;100078.94;;;11.14;57.91
66398;BME280;54877;51.504;3.894;2023-03-14T10:53:47;100083.75;;;11.22;56.58
66398;BME280;54877;51.504;3.894;2023-03-14T10:56:22;100102.78;;;11.14;56.64
66398;BME280;54877;51.504;3.894;2023-03-14T10:58:53;100113.78;;;10.80;58.31
66398;BME280;54877;51.504;3.894;2023-03-14T11:04:20;100137.53;;;10.53;59.85
66398;BME280;54877;51.504;3.894;2023-03-14T11:11:46;100156.75;;;10.27;60.53
66398;BME280;54877;51.504;3.894;2023-03-14T11:17:16;100182.19;;;10.30;60.10
66398;BME280;54877;51.504;3.894;2023-03-14T11:20:26;100183.16;;;10.43;59.34
66398;BME280;54877;51.504;3.894;2023-03-14T11:23:04;100194.31;;;10.48;59.13
66398;BME280;54877;51.504;3.894;2023-03-14T11:25:40;100197.66;;;10.66;58.85
66398;BME280;54877;51.504;3.894;2023-03-14T11:33:15;100214.31;;;10.82;57.29
66398;BME280;54877;51.504;3.894;2023-03-14T11:40:49;100245.88;;;10.71;52.93
66398;BME280;54877;51.504;3.894;2023-03-14T11:43:24;100252.06;;;10.85;53.23
66398;BME280;54877;51.504;3.894;2023-03-14T11:45:54;100255.94;;;10.80;52.84
66398;BME280;54877;51.504;3.894;2023-03-14T11:48:39;100263.88;;;10.80;51.47
66398;BME280;54877;51.504;3.894;2023-03-14T11:51:09;100266.16;;;11.00;52.97
66398;BME280;54877;51.504;3.894;2023-03-14T11:54:01;100272.22;;;11.02;52.26
66398;BME280;54877;51.504;3.894;2023-03-14T11:59:16;100290.03;;;11.14;51.84
66398;BME280;54877;51.504;3.894;2023-03-14T12:02:21;100284.38;;;11.20;51.29
66398;BME280;54877;51.504;3.894;2023-03-14T12:07:20;100312.28;;;11.26;50.94
66398;BME280;54877;51.504;3.894;2023-03-14T12:09:50;100311.25;;;11.42;51.12
66398;BME280;54877;51.504;3.894;2023-03-14T12:12:24;100322.97;;;11.38;50.83
66398;BME280;54877;51.504;3.894;2023-03-14T12:14:53;100313.34;;;11.51;49.81
66398;BME280;54877;51.504;3.894;2023-03-14T12:17:39;100331.06;;;11.65;49.76
66398;BME280;54877;51.504;3.894;2023-03-14T12:22:44;100341.66;;;11.65;48.04
66398;BME280;54877;51.504;3.894;2023-03-14T12:25:19;100339.84;;;11.51;46.62
66398;BME280;54877;51.504;3.894;2023-03-14T12:30:29;100362.78;;;11.08;46.37
66398;BME280;54877;51.504;3.894;2023-03-14T12:35:43;100378.16;;;11.02;47.33
66398;BME280;54877;51.504;3.894;2023-03-14T12:43:50;100387.59;;;10.92;44.01
66398;BME280;54877;51.504;3.894;2023-03-14T12:48:54;100398.38;;;10.89;42.77
66398;BME280;54877;51.504;3.894;2023-03-14T12:54:22;100399.03;;;10.63;42.90
66398;BME280;54877;51.504;3.894;2023-03-14T13:00:22;100435.81;;;10.67;44.28
66398;BME280;54877;51.504;3.894;2023-03-14T13:02:54;100448.09;;;10.84;44.98
66398;BME280;54877;51.504;3.894;2023-03-14T13:06:00;100455.03;;;10.71;42.39
66398;BME280;54877;51.504;3.894;2023-03-14T13:11:05;100467.59;;;10.51;39.99
66398;BME280;54877;51.504;3.894;2023-03-14T13:13:35;100468.97;;;10.74;39.91
66398;BME280;54877;51.504;3.894;2023-03-14T13:16:05;100473.75;;;10.68;38.95
66398;BME280;54877;51.504;3.894;2023-03-14T13:18:41;100475.28;;;10.72;39.42
66398;BME280;54877;51.504;3.894;2023-03-14T13:21:11;100475.78;;;10.78;39.40
66398;BME280;54877;51.504;3.894;2023-03-14T13:23:40;100476.47;;;10.82;40.58
66398;BME280;54877;51.504;3.894;2023-03-14T13:26:09;100489.22;;;10.59;41.69
66398;BME280;54877;51.504;3.894;2023-03-14T13:28:38;100489.97;;;10.61;41.88
66398;BME280;54877;51.504;3.894;2023-03-14T13:31:05;100502.13;;;10.66;41.70
66398;BME280;54877;51.504;3.894;2023-03-14T13:33:31;100510.38;;;10.59;43.02
66398;BME280;54877;51.504;3.894;2023-03-14T13:36:00;100513.72;;;10.79;43.54
66398;BME280;54877;51.504;3.894;2023-03-14T13:38:29;100528.22;;;10.72;43.69
66398;BME280;54877;51.504;3.894;2023-03-14T13:40:57;100531.63;;;10.58;42.33
66398;BME280;54877;51.504;3.894;2023-03-14T13:43:27;100547.00;;;10.51;41.77
66398;BME280;54877;51.504;3.894;2023-03-14T13:48:27;100563.56;;;10.55;41.27
66398;BME280;54877;51.504;3.894;2023-03-14T13:51:16;100569.09;;;10.50;42.18
66398;BME280;54877;51.504;3.894;2023-03-14T13:53:45;100573.81;;;10.45;42.83
66398;BME280;54877;51.504;3.894;2023-03-14T13:56:15;100579.09;;;10.45;42.68
66398;BME280;54877;51.504;3.894;2023-03-14T13:58:43;100589.81;;;10.59;42.12
66398;BME280;54877;51.504;3.894;2023-03-14T14:03:40;100611.75;;;10.61;42.84
66398;BME280;54877;51.504;3.894;2023-03-14T14:06:10;100607.56;;;10.57;43.52
66398;BME280;54877;51.504;3.894;2023-03-14T14:08:44;100620.81;;;10.40;44.43